Time;durP1;ratioP1;P1;durP2;ratioP2;P2;SDS_P1;SDS_P2;PMS_P1;PMS_P2;Temp;Humidity;BMP_temperature;BMP_pressure;BME280_temperature;BME280_humidity;BME280_pressure;Samples;Min_cycle;Max_cycle;Signal;HPM_P1;HPM_P2
2022/08/12 00:44:43;;;;;;;5.13;4.63;;;;;17.90;101339.00;;;;10440155;28;20186;-81
2022/08/12 00:49:48;;;;;;;6.73;5.50;;;;;17.80;101336.00;;;;10449861;28;20279;-81
2022/08/12 00:54:59;;;;;;;5.63;5.00;;;;;17.80;101337.00;;;;10441543;28;20285;-81
2022/08/12 01:00:09;;;;;;;7.80;4.57;;;;;17.70;101330.00;;;;10440529;28;20280;-81
2022/08/12 01:16:02;;;;;;;11.70;5.53;;;;;17.60;101335.00;;;;10437858;28;20189;-81
2022/08/12 01:21:23;;;;;;;6.80;5.87;;;;;17.50;101333.00;;;;10419370;28;20198;-81
2022/08/12 01:26:25;;;;;;;8.77;5.67;;;;;17.50;101337.00;;;;10429563;28;20560;-81
2022/08/12 01:31:29;;;;;;;7.20;5.20;;;;;17.40;101335.00;;;;10426960;28;20259;-81
2022/08/12 01:36:39;;;;;;;6.30;5.43;;;;;17.30;101334.00;;;;10446557;28;20521;-81
2022/08/12 01:41:51;;;;;;;6.60;5.33;;;;;17.20;101330.00;;;;10445874;28;20742;-80
2022/08/12 01:47:41;;;;;;;8.10;5.30;;;;;17.10;101328.00;;;;10431312;28;20236;-81
2022/08/12 01:52:53;;;;;;;6.37;5.77;;;;;17.00;101329.00;;;;10315514;28;20231;-81
2022/08/12 01:58:19;;;;;;;8.20;5.70;;;;;16.90;101314.00;;;;10432185;28;20205;-81
2022/08/12 02:14:56;;;;;;;9.80;5.90;;;;;16.70;101314.00;;;;10432891;28;20193;-81
2022/08/12 02:20:00;;;;;;;6.40;5.80;;;;;16.50;101313.00;;;;10444047;28;20198;-81
2022/08/12 02:25:07;;;;;;;7.90;6.00;;;;;16.40;101306.00;;;;10437421;28;20216;-81
2022/08/12 02:30:20;;;;;;;7.10;5.33;;;;;16.40;101317.00;;;;10428922;28;20227;-81
2022/08/12 02:35:26;;;;;;;13.53;6.40;;;;;16.30;101316.00;;;;10452959;28;20194;-81
2022/08/12 02:40:29;;;;;;;9.13;6.30;;;;;16.30;101304.00;;;;10414730;28;20228;-81
2022/08/12 02:45:36;;;;;;;9.03;5.80;;;;;16.30;101297.00;;;;10460364;28;20193;-81
2022/08/12 02:50:45;;;;;;;9.57;6.83;;;;;16.20;101300.00;;;;10443763;28;20745;-81
2022/08/12 02:55:48;;;;;;;8.30;6.47;;;;;16.20;101294.00;;;;10436003;28;20280;-81
2022/08/12 03:00:50;;;;;;;9.90;7.47;;;;;16.00;101298.00;;;;10433360;28;20277;-81
2022/08/12 03:06:02;;;;;;;11.70;7.00;;;;;15.90;101297.00;;;;10459821;28;20687;-81
2022/08/12 03:11:12;;;;;;;11.20;6.93;;;;;15.70;101293.00;;;;10441171;28;20263;-80
2022/08/12 03:16:16;;;;;;;10.20;7.37;;;;;15.60;101292.00;;;;10418904;28;20259;-81
2022/08/12 03:21:19;;;;;;;8.03;7.13;;;;;15.60;101293.00;;;;10420005;28;20224;-80
2022/08/12 03:26:44;;;;;;;10.63;7.50;;;;;15.50;101297.00;;;;10436939;28;20186;-80
2022/08/12 03:31:47;;;;;;;10.57;7.53;;;;;15.50;101299.00;;;;10442069;28;20194;-80
2022/08/12 03:36:53;;;;;;;9.30;8.30;;;;;15.50;101304.00;;;;10411498;28;20243;-80
2022/08/12 03:41:58;;;;;;;10.20;8.40;;;;;15.60;101303.00;;;;10448489;28;20181;-81
2022/08/12 04:03:51;;;;;;;14.77;8.40;;;;;15.40;101301.00;;;;10449572;28;20209;-80
2022/08/12 04:08:30;;;;;;;9.90;8.10;;;;;15.30;101314.00;;;;10451306;28;20198;-81
2022/08/12 04:13:32;;;;;;;12.30;8.37;;;;;15.30;101309.00;;;;10420527;28;20199;-80
2022/08/12 04:18:35;;;;;;;10.70;7.93;;;;;15.30;101313.00;;;;10432262;28;20270;-80
2022/08/12 04:23:41;;;;;;;9.27;7.73;;;;;15.30;101314.00;;;;10430468;28;20194;-81
2022/08/12 04:28:49;;;;;;;8.00;7.20;;;;;15.30;101318.00;;;;10449964;28;20201;-81
2022/08/12 04:33:51;;;;;;;12.23;8.20;;;;;15.20;101314.00;;;;10449582;28;20200;-80
2022/08/12 04:38:54;;;;;;;14.57;9.60;;;;;15.30;101321.00;;;;10445520;28;20281;-79
2022/08/12 04:44:00;;;;;;;9.53;8.47;;;;;15.30;101320.00;;;;10449420;28;20193;-80
2022/08/12 04:49:04;;;;;;;8.90;7.73;;;;;15.30;101317.00;;;;10433320;28;20263;-79
2022/08/12 04:54:06;;;;;;;15.10;7.63;;;;;15.40;101309.00;;;;10441911;28;20233;-81
2022/08/12 04:59:10;;;;;;;9.43;7.60;;;;;15.40;101316.00;;;;10432091;28;20280;-80
2022/08/12 05:04:12;;;;;;;14.50;8.80;;;;;15.60;101324.00;;;;10449085;28;20301;-80
2022/08/12 05:09:14;;;;;;;9.17;8.27;;;;;15.70;101321.00;;;;10438861;28;20205;-80
2022/08/12 05:14:16;;;;;;;15.27;8.83;;;;;16.00;101316.00;;;;10431809;28;20213;-80
2022/08/12 05:19:20;;;;;;;13.67;9.13;;;;;16.20;101323.00;;;;10447487;28;20289;-81
2022/08/12 05:24:23;;;;;;;10.20;7.90;;;;;16.50;101328.00;;;;10434265;28;20227;-81
2022/08/12 05:29:28;;;;;;;12.17;9.10;;;;;16.80;101325.00;;;;10431016;28;20311;-81
2022/08/12 05:34:52;;;;;;;11.73;8.20;;;;;17.20;101328.00;;;;10428359;28;20284;-80
2022/08/12 05:39:54;;;;;;;11.70;8.37;;;;;17.50;101332.00;;;;10429372;28;20300;-80
2022/08/12 05:44:56;;;;;;;12.97;9.00;;;;;17.80;101336.00;;;;10449634;28;20238;-81
2022/08/12 05:49:58;;;;;;;10.50;8.47;;;;;18.20;101333.00;;;;10424229;28;20271;-81
2022/08/12 05:55:01;;;;;;;9.43;8.40;;;;;18.60;101338.00;;;;10405939;28;20284;-80
2022/08/12 06:00:05;;;;;;;8.60;7.80;;;;;19.00;101346.00;;;;10432300;28;20211;-81
2022/08/12 06:05:12;;;;;;;13.15;8.18;;;;;19.60;101338.00;;;;10440684;28;20310;-81
2022/08/12 06:10:18;;;;;;;10.75;8.20;;;;;20.30;101347.00;;;;10431196;28;20279;-81
2022/08/12 06:15:38;;;;;;;11.13;7.78;;;;;20.90;101342.00;;;;10446944;28;20201;-81
2022/08/12 06:20:40;;;;;;;17.80;7.70;;;;;21.50;101337.00;;;;10438845;28;20195;-81
2022/08/12 06:25:42;;;;;;;12.75;7.70;;;;;22.00;101331.00;;;;10440929;28;20736;-80
2022/08/12 06:30:45;;;;;;;13.68;7.63;;;;;22.50;101344.00;;;;10464801;28;20209;-81
2022/08/12 06:36:08;;;;;;;8.60;6.82;;;;;22.90;101342.00;;;;10422346;28;20200;-78
2022/08/12 06:46:31;;;;;;;13.30;7.80;;;;;23.50;101336.00;;;;10437087;28;20200;-79
2022/08/12 06:51:33;;;;;;;7.88;7.05;;;;;23.80;101340.00;;;;10405309;28;20198;-78
2022/08/12 06:56:36;;;;;;;11.93;7.25;;;;;24.10;101341.00;;;;10406204;28;20208;-78
2022/08/12 07:01:58;;;;;;;9.90;7.25;;;;;24.50;101347.00;;;;10463769;28;20233;-79
2022/08/12 07:07:00;;;;;;;7.22;6.53;;;;;24.70;101347.00;;;;10467073;28;20194;-79
2022/08/12 07:12:02;;;;;;;9.85;6.70;;;;;25.00;101344.00;;;;10455228;28;20197;-79
2022/08/12 07:17:06;;;;;;;13.48;6.10;;;;;25.50;101350.00;;;;10467679;28;20204;-79
2022/08/12 07:22:12;;;;;;;10.93;6.57;;;;;26.00;101355.00;;;;10436202;28;20291;-79
2022/08/12 07:27:16;;;;;;;8.13;5.68;;;;;26.40;101344.00;;;;10467311;28;20652;-79
2022/08/12 07:32:23;;;;;;;12.10;5.63;;;;;26.80;101355.00;;;;10466491;28;20654;-79
2022/08/12 07:37:32;;;;;;;7.47;5.25;;;;;27.00;101342.00;;;;10429247;28;20193;-77
2022/08/12 07:42:34;;;;;;;9.20;5.68;;;;;27.00;101344.00;;;;10455528;28;20197;-78
2022/08/12 07:47:40;;;;;;;12.65;5.32;;;;;27.40;101352.00;;;;10438637;28;20216;-78
2022/08/12 07:52:44;;;;;;;15.13;5.50;;;;;27.90;101346.00;;;;10454515;28;20209;-79
2022/08/12 07:57:58;;;;;;;10.05;4.90;;;;;28.30;101360.00;;;;10449287;28;20215;-76
2022/08/12 08:03:00;;;;;;;9.32;4.68;;;;;28.50;101355.00;;;;10449419;28;20270;-79
2022/08/12 08:08:12;;;;;;;8.90;4.70;;;;;28.90;101356.00;;;;10427267;28;20661;-77
2022/08/12 08:13:15;;;;;;;7.85;4.30;;;;;29.30;101347.00;;;;10443435;28;20279;-77
2022/08/12 08:18:18;;;;;;;6.50;4.47;;;;;29.60;101349.00;;;;10424735;28;20202;-77
2022/08/12 08:24:13;;;;;;;10.15;3.97;;;;;29.90;101350.00;;;;10433598;28;20218;-77
2022/08/12 08:28:58;;;;;;;7.40;3.95;;;;;30.20;101347.00;;;;10426994;28;20214;-77
2022/08/12 08:34:00;;;;;;;11.70;4.47;;;;;30.60;101344.00;;;;10435512;28;20190;-77
2022/08/12 08:39:26;;;;;;;10.02;4.07;;;;;31.10;101355.00;;;;10439658;28;20190;-77
2022/08/12 08:44:28;;;;;;;4.85;3.20;;;;;31.40;101345.00;;;;10448849;28;20197;-77
2022/08/12 08:49:30;;;;;;;6.82;3.47;;;;;31.70;101350.00;;;;10446990;28;20213;-77
2022/08/12 08:54:36;;;;;;;9.82;3.60;;;;;32.40;101347.00;;;;10450983;28;20637;-78
2022/08/12 08:59:38;;;;;;;9.27;3.85;;;;;32.80;101346.00;;;;10435624;28;20191;-77
2022/08/12 09:04:40;;;;;;;9.52;3.50;;;;;33.10;101343.00;;;;10454058;28;20268;-77
2022/08/12 09:10:05;;;;;;;4.65;2.50;;;;;33.40;101340.00;;;;10415711;28;20204;-78
2022/08/12 09:15:16;;;;;;;4.45;3.10;;;;;33.60;101333.00;;;;10453519;28;20193;-78
2022/08/12 09:20:39;;;;;;;8.98;3.20;;;;;33.90;101333.00;;;;10450668;28;20676;-79
2022/08/12 09:25:43;;;;;;;8.48;3.03;;;;;34.10;101331.00;;;;10466120;28;20201;-79
2022/08/12 09:30:49;;;;;;;5.90;3.00;;;;;34.70;101333.00;;;;10437639;28;20193;-79
2022/08/12 09:35:51;;;;;;;6.43;3.42;;;;;34.90;101334.00;;;;10420150;28;20194;-79
2022/08/12 09:41:06;;;;;;;6.65;3.20;;;;;35.30;101315.00;;;;10460862;28;20212;-79
2022/08/12 09:46:28;;;;;;;7.35;3.03;;;;;35.40;101313.00;;;;10460252;28;20225;-79
2022/08/12 09:51:33;;;;;;;5.07;2.72;;;;;35.70;101306.00;;;;10445024;28;20216;-79
2022/08/12 09:56:44;;;;;;;6.60;2.45;;;;;36.00;101302.00;;;;10433629;28;20602;-79
2022/08/12 10:02:05;;;;;;;3.22;2.30;;;;;35.80;101289.00;;;;10419174;28;20672;-80
2022/08/12 10:07:29;;;;;;;7.55;2.60;;;;;35.90;101280.00;;;;10441475;28;20288;-79
2022/08/12 10:18:11;;;;;;;4.90;2.65;;;;;36.60;101279.00;;;;10452513;28;20748;-79
2022/08/12 10:23:13;;;;;;;5.63;2.40;;;;;36.70;101260.00;;;;10441765;28;20202;-79
2022/08/12 10:33:39;;;;;;;6.18;2.45;;;;;37.20;101264.00;;;;10438384;28;20292;-79
2022/08/12 10:39:02;;;;;;;3.08;2.20;;;;;36.90;101251.00;;;;10467724;28;20237;-79
2022/08/12 10:44:24;;;;;;;6.90;2.50;;;;;37.20;101246.00;;;;10488853;28;20251;-79
2022/08/12 10:49:33;;;;;;;3.08;2.45;;;;;37.10;101236.00;;;;10453932;28;20186;-80
2022/08/12 10:54:56;;;;;;;4.28;2.17;;;;;37.60;101238.00;;;;10438191;28;20186;-79
2022/08/12 10:59:58;;;;;;;5.22;2.20;;;;;37.80;101236.00;;;;10451911;28;20212;-79
2022/08/12 11:05:50;;;;;;;7.13;2.20;;;;;37.60;101223.00;;;;10435463;28;20218;-79
2022/08/12 11:11:16;;;;;;;4.38;1.90;;;;;37.80;101221.00;;;;10464497;28;20268;-80
2022/08/12 11:16:39;;;;;;;2.63;2.05;;;;;37.80;101214.00;;;;10431519;28;20205;-80
2022/08/12 11:22:02;;;;;;;3.33;2.20;;;;;38.00;101216.00;;;;10438238;28;20205;-80
2022/08/12 11:27:07;;;;;;;5.35;2.25;;;;;38.10;101192.00;;;;10431489;28;20249;-79
2022/08/12 11:32:12;;;;;;;8.55;2.50;;;;;38.10;101200.00;;;;10446813;28;20178;-79
2022/08/12 11:37:15;;;;;;;3.20;1.95;;;;;38.30;101190.00;;;;10448562;28;20769;-80
2022/08/12 11:42:27;;;;;;;4.28;2.05;;;;;38.10;101193.00;;;;10436195;28;20272;-79
2022/08/12 11:47:33;;;;;;;4.22;2.30;;;;;38.10;101187.00;;;;10426340;28;20813;-79
2022/08/12 11:53:04;;;;;;;2.58;2.20;;;;;38.30;101188.00;;;;10447061;28;20232;-79
2022/08/12 11:58:26;;;;;;;7.95;2.38;;;;;38.30;101178.00;;;;10443886;28;20618;-79
2022/08/12 12:03:49;;;;;;;6.05;2.30;;;;;38.50;101169.00;;;;10410444;28;20225;-79
2022/08/12 12:08:51;;;;;;;5.72;1.95;;;;;38.20;101172.00;;;;10430044;28;20193;-80
2022/08/12 12:13:55;;;;;;;6.85;1.85;;;;;38.20;101171.00;;;;10456975;28;20185;-79
2022/08/12 12:19:12;;;;;;;6.30;1.73;;;;;37.90;101175.00;;;;10435385;28;20731;-79
2022/08/12 12:24:16;;;;;;;2.85;2.00;;;;;37.90;101174.00;;;;10432601;28;20240;-78
2022/08/12 12:29:23;;;;;;;4.75;1.80;;;;;38.00;101158.00;;;;10440826;28;20571;-79
2022/08/12 12:34:45;;;;;;;2.80;2.08;;;;;38.30;101146.00;;;;10444553;28;20197;-79
2022/08/12 12:40:08;;;;;;;5.78;2.17;;;;;38.20;101156.00;;;;10440220;28;20205;-80
2022/08/12 12:45:10;;;;;;;4.00;2.17;;;;;38.00;101148.00;;;;10453583;28;20204;-79
2022/08/12 12:50:29;;;;;;;3.95;2.10;;;;;38.20;101147.00;;;;10453516;28;20557;-79
2022/08/12 12:55:45;;;;;;;2.13;1.90;;;;;37.90;101145.00;;;;10484197;28;20200;-79
2022/08/12 13:00:49;;;;;;;3.85;1.92;;;;;38.00;101136.00;;;;10438798;28;20216;-80
2022/08/12 13:05:59;;;;;;;2.42;1.95;;;;;38.20;101135.00;;;;10438967;28;20282;-79
2022/08/12 13:11:04;;;;;;;4.57;2.00;;;;;38.00;101134.00;;;;10471507;28;20181;-79
2022/08/12 13:16:06;;;;;;;3.88;2.05;;;;;38.50;101127.00;;;;10422116;28;20636;-78
2022/08/12 13:21:21;;;;;;;4.95;2.03;;;;;38.90;101123.00;;;;10459165;28;20209;-79
2022/08/12 13:26:43;;;;;;;4.57;2.13;;;;;39.20;101131.00;;;;10451426;28;20225;-78
2022/08/12 13:32:12;;;;;;;5.85;2.20;;;;;40.10;101119.00;;;;10452205;28;20178;-78
2022/08/12 13:37:41;;;;;;;5.22;1.90;;;;;40.90;101127.00;;;;10453913;28;20190;-79
2022/08/12 13:43:00;;;;;;;5.97;2.00;;;;;41.60;101136.00;;;;10463077;28;20214;-78
2022/08/12 13:48:04;;;;;;;2.13;1.65;;;;;41.50;101133.00;;;;10449359;28;20695;-78
2022/08/12 13:53:09;;;;;;;2.72;1.85;;;;;42.00;101121.00;;;;10457671;28;20721;-78
2022/08/12 13:58:27;;;;;;;3.63;1.80;;;;;42.50;101117.00;;;;10457794;28;20189;-78
2022/08/12 14:03:32;;;;;;;3.63;2.10;;;;;42.70;101111.00;;;;10436325;28;20566;-78
2022/08/12 14:08:52;;;;;;;5.10;2.15;;;;;42.50;101102.00;;;;10437381;28;20194;-78
2022/08/12 14:13:57;;;;;;;3.92;1.95;;;;;42.30;101096.00;;;;10422870;28;20217;-78
2022/08/12 14:19:13;;;;;;;4.15;2.20;;;;;41.50;101081.00;;;;10427014;28;20821;-78
2022/08/12 14:24:33;;;;;;;4.95;1.70;;;;;43.70;101077.00;;;;10433822;28;20220;-79
2022/08/12 14:29:40;;;;;;;2.95;1.90;;;;;44.20;101075.00;;;;10456721;28;20280;-78
2022/08/12 14:35:05;;;;;;;9.35;2.33;;;;;44.20;101078.00;;;;10460297;28;20189;-79
2022/08/12 14:40:10;;;;;;;3.13;1.70;;;;;44.60;101073.00;;;;10462462;28;20202;-79
2022/08/12 14:45:31;;;;;;;3.00;2.00;;;;;45.20;101070.00;;;;10420286;28;20200;-79
2022/08/12 14:50:50;;;;;;;10.10;2.35;;;;;45.50;101068.00;;;;10441059;28;20571;-79
2022/08/12 14:56:15;;;;;;;3.78;1.70;;;;;45.60;101065.00;;;;10437399;28;20180;-79
2022/08/12 15:01:37;;;;;;;5.53;1.80;;;;;45.50;101058.00;;;;10446626;28;20209;-78
2022/08/12 15:06:40;;;;;;;4.38;1.95;;;;;45.70;101045.00;;;;10431532;28;20190;-79
2022/08/12 15:11:53;;;;;;;5.00;1.90;;;;;44.50;101052.00;;;;10416667;28;20193;-78
2022/08/12 15:17:05;;;;;;;5.63;1.90;;;;;40.50;101047.00;;;;10414428;28;20201;-79
2022/08/12 15:22:08;;;;;;;6.60;2.20;;;;;37.20;101050.00;;;;10434597;28;20229;-78
2022/08/12 15:27:30;;;;;;;5.68;2.20;;;;;36.70;101042.00;;;;10463594;28;20192;-78
2022/08/12 15:32:53;;;;;;;5.93;2.45;;;;;36.70;101036.00;;;;10443627;28;20243;-78
2022/08/12 15:38:06;;;;;;;7.63;2.90;;;;;35.60;101041.00;;;;10431633;28;20182;-78
2022/08/12 15:43:21;;;;;;;5.22;2.38;;;;;35.70;101033.00;;;;10455579;28;20205;-78
2022/08/12 15:48:44;;;;;;;3.70;2.35;;;;;37.60;101034.00;;;;10424549;28;20189;-78
2022/08/12 15:54:06;;;;;;;4.53;2.33;;;;;39.10;101039.00;;;;10427860;28;20190;-80
2022/08/12 15:59:28;;;;;;;4.25;2.33;;;;;35.40;101032.00;;;;10430245;28;20199;-79
2022/08/12 16:04:50;;;;;;;4.53;1.83;;;;;34.10;101035.00;;;;10441810;28;20275;-79
2022/08/12 16:09:54;;;;;;;2.00;1.80;;;;;33.50;101027.00;;;;10453604;28;20190;-78
2022/08/12 16:15:11;;;;;;;6.15;2.00;;;;;32.90;101020.00;;;;10451286;28;20598;-79
2022/08/12 16:20:22;;;;;;;3.58;1.98;;;;;32.60;101019.00;;;;10461390;28;20259;-78
2022/08/12 16:25:36;;;;;;;3.88;2.45;;;;;32.40;101015.00;;;;10463814;28;20194;-77
2022/08/12 16:30:59;;;;;;;2.47;1.70;;;;;32.30;101012.00;;;;10459221;28;20242;-77
2022/08/12 16:36:05;;;;;;;3.95;1.85;;;;;32.10;101006.00;;;;10447117;28;20213;-78
2022/08/12 16:41:12;;;;;;;5.95;2.10;;;;;32.00;101007.00;;;;10446130;28;20707;-78
2022/08/12 16:46:15;;;;;;;4.45;2.30;;;;;32.00;101000.00;;;;10461968;28;20201;-78
2022/08/12 16:51:33;;;;;;;6.28;2.20;;;;;31.80;101000.00;;;;10461593;28;20189;-77
2022/08/12 16:56:44;;;;;;;5.95;2.33;;;;;31.70;101001.00;;;;10430199;28;20193;-77
2022/08/12 17:01:56;;;;;;;4.00;2.00;;;;;31.60;101004.00;;;;10463232;28;20217;-77
2022/08/12 17:07:00;;;;;;;4.65;2.33;;;;;31.50;101001.00;;;;10478715;28;20220;-77
2022/08/12 17:12:03;;;;;;;4.70;2.10;;;;;31.40;101002.00;;;;10447074;28;20533;-77
2022/08/12 17:17:06;;;;;;;4.30;2.10;;;;;31.40;100997.00;;;;10443150;28;20206;-76
2022/08/12 17:22:29;;;;;;;4.97;2.33;;;;;31.30;100996.00;;;;10446437;28;20205;-77
2022/08/12 17:27:31;;;;;;;2.80;2.42;;;;;31.20;100992.00;;;;10433034;28;20197;-77
2022/08/12 17:32:38;;;;;;;10.00;2.00;;;;;31.00;100991.00;;;;10463384;28;20266;-76
2022/08/12 17:37:41;;;;;;;5.35;1.90;;;;;30.90;100992.00;;;;10476520;28;20186;-77
2022/08/12 17:42:46;;;;;;;8.85;2.05;;;;;30.80;100993.00;;;;10424414;28;20234;-77
2022/08/12 17:47:57;;;;;;;5.70;1.80;;;;;30.60;100989.00;;;;10446921;28;20277;-77
2022/08/12 17:53:08;;;;;;;4.57;2.22;;;;;30.40;100987.00;;;;10470773;28;20674;-76
2022/08/12 17:58:52;;;;;;;10.50;2.00;;;;;30.30;100992.00;;;;10409275;28;20305;-76
2022/08/12 18:04:05;;;;;;;4.38;2.00;;;;;30.10;100993.00;;;;10439689;28;20232;-76
2022/08/12 18:09:40;;;;;;;8.73;2.38;;;;;29.90;100997.00;;;;10496755;28;20193;-76
2022/08/12 18:15:21;;;;;;;7.45;2.00;;;;;29.60;101008.00;;;;10442714;28;20198;-76
2022/08/12 18:20:52;;;;;;;6.88;1.90;;;;;29.40;101009.00;;;;10423218;28;20228;-76
2022/08/12 18:26:24;;;;;;;5.95;1.70;;;;;29.10;101007.00;;;;10407729;28;20201;-76
2022/08/12 18:31:29;;;;;;;6.07;2.15;;;;;28.90;101018.00;;;;10434620;28;20275;-75
2022/08/12 18:36:50;;;;;;;2.88;1.85;;;;;28.70;101022.00;;;;10459124;28;20186;-76
2022/08/12 18:41:58;;;;;;;5.80;1.90;;;;;28.40;101015.00;;;;10435614;28;20569;-76
2022/08/12 18:47:05;;;;;;;5.72;2.00;;;;;28.20;101009.00;;;;10430697;28;20186;-75
2022/08/12 18:52:14;;;;;;;2.42;1.90;;;;;27.90;101006.00;;;;10469367;28;20193;-76
2022/08/12 18:57:29;;;;;;;5.60;1.98;;;;;27.60;101017.00;;;;10470381;28;20185;-77
2022/08/12 19:02:57;;;;;;;5.15;1.77;;;;;27.40;101007.00;;;;10437428;28;20209;-78
2022/08/12 19:08:00;;;;;;;2.30;1.70;;;;;27.10;101012.00;;;;10457220;28;20193;-77
2022/08/12 19:35:57;;;;;;;6.20;2.10;;;;;25.30;101011.00;;;;10457204;28;20198;-77
2022/08/12 19:41:26;;;;;;;3.15;2.03;;;;;25.20;101025.00;;;;10452611;28;20201;-77
2022/08/12 19:47:23;;;;;;;15.00;2.50;;;;;24.90;101027.00;;;;10449631;28;20665;-77
2022/08/12 19:52:34;;;;;;;4.72;2.30;;;;;24.60;101025.00;;;;10434668;28;20235;-77
2022/08/12 19:57:59;;;;;;;5.85;2.80;;;;;24.50;101033.00;;;;10452404;28;20193;-77
2022/08/12 20:03:25;;;;;;;4.95;2.55;;;;;24.30;101041.00;;;;10436155;28;20279;-78
2022/08/12 20:09:15;;;;;;;5.70;2.30;;;;;24.10;101041.00;;;;10424190;28;20227;-77
2022/08/12 20:15:05;;;;;;;3.88;2.33;;;;;24.00;101038.00;;;;10447194;28;20285;-77
2022/08/12 20:20:32;;;;;;;4.20;2.92;;;;;23.90;101034.00;;;;10420187;28;20212;-77
2022/08/12 20:25:37;;;;;;;3.47;2.40;;;;;23.90;101043.00;;;;10442738;28;20281;-77
2022/08/12 20:31:05;;;;;;;3.83;2.55;;;;;23.80;101041.00;;;;10421203;28;20198;-77
2022/08/12 20:36:23;;;;;;;6.03;2.40;;;;;23.70;101057.00;;;;10459912;28;20243;-77
2022/08/12 20:42:00;;;;;;;5.22;2.63;;;;;23.60;101038.00;;;;10458989;28;20692;-77
2022/08/12 20:47:07;;;;;;;4.70;2.30;;;;;23.50;101053.00;;;;10445451;28;20553;-77
2022/08/12 20:52:24;;;;;;;4.93;2.33;;;;;23.30;101043.00;;;;10412173;28;20280;-77
2022/08/12 20:57:34;;;;;;;6.13;3.10;;;;;23.20;101042.00;;;;10432238;28;20568;-77
2022/08/12 21:02:44;;;;;;;5.43;2.92;;;;;23.20;101046.00;;;;10437207;28;20221;-77
2022/08/12 21:07:51;;;;;;;6.50;3.33;;;;;23.20;101046.00;;;;10462039;28;20186;-77
2022/08/12 21:12:53;;;;;;;6.22;2.88;;;;;23.10;101043.00;;;;10461426;28;20190;-77
2022/08/12 21:17:59;;;;;;;6.38;2.88;;;;;23.00;101043.00;;;;10463929;28;20202;-77
2022/08/12 21:23:24;;;;;;;4.60;2.80;;;;;23.00;101041.00;;;;10460485;28;20194;-77
2022/08/12 21:28:37;;;;;;;4.07;2.75;;;;;22.80;101038.00;;;;10469547;28;20186;-78
2022/08/12 21:33:40;;;;;;;4.75;2.42;;;;;22.70;101039.00;;;;10443954;28;20197;-77
2022/08/12 21:39:11;;;;;;;7.88;2.28;;;;;22.50;101047.00;;;;10446995;28;20195;-77
2022/08/12 21:44:24;;;;;;;6.72;2.50;;;;;22.20;101046.00;;;;10450998;28;20284;-77
2022/08/12 21:49:46;;;;;;;5.55;2.78;;;;;22.00;101047.00;;;;10436651;28;20188;-76
2022/08/12 21:55:07;;;;;;;6.00;2.80;;;;;21.80;101043.00;;;;10449494;28;20194;-76
2022/08/12 22:00:23;;;;;;;4.60;2.58;;;;;21.60;101040.00;;;;10428240;28;20205;-76
2022/08/12 22:11:06;;;;;;;3.55;2.58;;;;;21.20;101047.00;;;;10463486;28;20651;-76
2022/08/12 22:16:10;;;;;;;3.67;3.08;;;;;21.10;101045.00;;;;10487088;28;20545;-76
2022/08/12 22:21:19;;;;;;;6.65;3.17;;;;;20.90;101042.00;;;;10446606;28;20209;-76
2022/08/12 22:26:25;;;;;;;11.15;3.38;;;;;20.70;101045.00;;;;10422949;28;20210;-77
2022/08/12 22:31:38;;;;;;;6.00;3.83;;;;;20.50;101047.00;;;;10409831;28;20193;-77
2022/08/12 22:36:40;;;;;;;5.35;2.78;;;;;20.30;101050.00;;;;10447672;28;20186;-76
2022/08/12 22:52:47;;;;;;;4.47;3.17;;;;;20.00;101040.00;;;;10480480;28;20190;-76
2022/08/12 22:57:51;;;;;;;5.90;2.65;;;;;19.90;101040.00;;;;10484714;28;20200;-76
2022/08/12 23:02:56;;;;;;;8.80;2.67;;;;;19.60;101041.00;;;;10447094;28;20226;-76
2022/08/12 23:08:04;;;;;;;3.30;2.80;;;;;19.50;101046.00;;;;10422920;28;20197;-76
2022/08/12 23:18:28;;;;;;;4.72;2.83;;;;;19.20;101036.00;;;;10460423;28;20216;-76
2022/08/12 23:23:34;;;;;;;3.63;3.08;;;;;19.10;101029.00;;;;10390740;28;20304;-76
2022/08/12 23:29:14;;;;;;;5.20;2.67;;;;;19.00;101043.00;;;;10421285;28;20244;-76
2022/08/12 23:34:36;;;;;;;8.57;2.85;;;;;18.90;101039.00;;;;10453334;28;20663;-76
2022/08/12 23:39:39;;;;;;;5.32;2.63;;;;;18.80;101045.00;;;;10453024;28;20206;-76
2022/08/12 23:45:02;;;;;;;5.63;2.80;;;;;18.70;101042.00;;;;10497649;28;20209;-76
2022/08/12 23:50:25;;;;;;;4.13;3.00;;;;;18.60;101041.00;;;;10465078;28;20216;-76
2022/08/12 23:55:37;;;;;;;8.07;2.87;;;;;18.50;101038.00;;;;10421587;28;20198;-76
